メインページ
METAR-TAF:

METAR-TAF

空港 :

新居大島, 日本

大島空港

緯度: 34-47N, 経度: 139-22E, 海抜: 38m

現時点の気象観測

当レポートは29分前の04:00(UTC)に作成
変向風 2kt
気温 26°C
湿度 65%
気圧 1016 hPa
視程10km以上
高度2000ftの雲はほとんどない
高度3000ftの千切れ雲あり
千切れ雲あり

METAR: RJTO 220400Z VRB02KT 9999 FEW020 BKN030 BKN/// 26/19 Q1016

時間: 13:29 (04:29 UTC)


TAF: 見つかりません

4,000以上の空港の気象観測と天気予報(METAR報とTAF報)

利用可能な観測所は地図上に黄色い丸と赤い丸で示す。

丸の上にカーソルを重ねると観測所名を参照できる。

次にクリックすると気象観測と天気予報を参照できる。

マップの切り替え:黒色「×」印の緑ボタンをクリックして拡大、「-」印の緑ボタンをクリックして縮小、緑色の三角印をクリックして隣りの地図に切り替え


METAR-TAF: